createdAt,value
2022-08-17T00:00:16.559Z,100877.28
2022-08-17T00:03:24.968Z,100875.72
2022-08-17T00:06:17.072Z,100879.38
2022-08-17T00:08:53.965Z,100883.06
2022-08-17T00:11:26.119Z,100877.81
2022-08-17T00:13:57.787Z,100876.19
2022-08-17T00:16:56.467Z,100878.06
2022-08-17T00:19:26.425Z,100872.03
2022-08-17T00:22:32.472Z,100875.63
2022-08-17T00:24:44.742Z,100874.94
2022-08-17T00:27:11.661Z,100877.59
2022-08-17T00:29:38.613Z,100874.22
2022-08-17T00:33:14.210Z,100877.03
2022-08-17T00:34:52.617Z,100876.34
2022-08-17T00:37:19.552Z,100885.34
2022-08-17T00:39:46.531Z,100881.97
2022-08-17T00:42:22.287Z,100875.88
2022-08-17T00:44:49.202Z,100875.09
2022-08-17T00:47:16.109Z,100873.53
2022-08-17T00:49:43.018Z,100878.16
2022-08-17T00:52:20.484Z,100860.81
2022-08-17T00:54:52.332Z,100869.75
2022-08-17T00:57:26.485Z,100869.03
2022-08-17T01:00:02.330Z,100870.06
2022-08-17T01:02:42.241Z,100879.13
2022-08-17T01:05:25.403Z,100877.59
2022-08-17T01:07:53.121Z,100883.94
2022-08-17T01:10:59.690Z,100882.44
2022-08-17T01:13:14.908Z,100881.78
2022-08-17T01:15:47.616Z,100888.97
2022-08-17T01:18:15.063Z,100884.03
2022-08-17T01:20:49.085Z,100885.91
2022-08-17T01:23:20.579Z,100889.03
2022-08-17T01:25:51.793Z,100893.69
2022-08-17T01:28:52.468Z,100884.13
2022-08-17T01:31:09.157Z,100890.47
2022-08-17T01:33:36.829Z,100895.06
2022-08-17T01:36:07.140Z,100896.06
2022-08-17T01:38:36.759Z,100899.75
2022-08-17T01:41:12.208Z,100898.94
2022-08-17T01:43:56.793Z,100900.06
2022-08-17T01:46:29.233Z,100903.34
2022-08-17T01:48:57.615Z,100904.56
2022-08-17T01:51:32.921Z,100911.88
2022-08-17T01:54:07.816Z,100914.53
2022-08-17T01:56:38.967Z,100909.22
2022-08-17T01:59:06.401Z,100909.22
2022-08-17T02:01:35.138Z,100902.97
2022-08-17T02:04:03.641Z,100909.22
2022-08-17T02:06:45.384Z,100906.56
2022-08-17T02:09:25.962Z,100908.41
2022-08-17T02:11:56.399Z,100911.16
2022-08-17T02:14:24.624Z,100911.31
2022-08-17T02:16:52.896Z,100918.59
2022-08-17T02:19:19.907Z,100911.84
2022-08-17T02:21:51.435Z,100916.16
2022-08-17T02:24:58.219Z,100909.25
2022-08-17T02:27:13.569Z,100909.38
2022-08-17T02:29:40.549Z,100911.09
2022-08-17T02:32:25.432Z,100907.59
2022-08-17T02:34:56.718Z,100911.09
2022-08-17T02:37:24.309Z,100907.59
2022-08-17T02:39:51.295Z,100910.25
2022-08-17T02:42:18.487Z,100912.91
2022-08-17T02:44:45.394Z,100915.56
2022-08-17T02:47:12.538Z,100919.16
2022-08-17T02:49:39.440Z,100915.59
2022-08-17T02:52:07.860Z,100913.91
2022-08-17T02:54:40.235Z,100918.41
2022-08-17T02:57:09.855Z,100904.41
2022-08-17T02:59:38.018Z,100911.38
2022-08-17T03:02:10.434Z,100907.06
2022-08-17T03:04:38.689Z,100909.63
2022-08-17T03:07:06.669Z,100903.59
2022-08-17T03:09:33.638Z,100914.19
2022-08-17T03:12:11.040Z,100913.38
2022-08-17T03:14:42.185Z,100913.38
2022-08-17T03:17:11.233Z,100917.94
2022-08-17T03:19:44.439Z,100910.03
2022-08-17T03:22:37.337Z,100902.97
2022-08-17T03:24:58.738Z,100911.03
2022-08-17T03:27:25.684Z,100902.25
2022-08-17T03:29:53.264Z,100906.72
2022-08-17T03:32:20.722Z,100912.06
2022-08-17T03:34:48.901Z,100907.69
2022-08-17T03:37:16.354Z,100914.00
2022-08-17T03:39:43.307Z,100908.75
2022-08-17T03:42:32.396Z,100908.81
2022-08-17T03:45:00.377Z,100909.81
2022-08-17T03:47:46.032Z,100915.19
2022-08-17T03:50:32.475Z,100899.31
2022-08-17T03:53:18.989Z,100908.28
2022-08-17T03:56:04.499Z,100906.63
2022-08-17T03:58:31.416Z,100906.75
2022-08-17T04:00:58.540Z,100908.56
2022-08-17T04:03:25.536Z,100914.72
2022-08-17T04:05:52.457Z,100912.06
2022-08-17T04:08:19.366Z,100919.22
2022-08-17T04:10:46.652Z,100917.41
2022-08-17T04:13:14.128Z,100917.38
2022-08-17T04:15:41.636Z,100915.56
2022-08-17T04:18:10.926Z,100912.88
2022-08-17T04:20:38.139Z,100915.56
2022-08-17T04:23:18.099Z,100926.69
2022-08-17T04:25:49.187Z,100918.44
2022-08-17T04:28:17.996Z,100927.78
2022-08-17T04:30:47.315Z,100922.66
2022-08-17T04:33:21.863Z,100931.34
2022-08-17T04:35:52.536Z,100936.47
2022-08-17T04:38:24.386Z,100941.53
2022-08-17T04:41:10.480Z,100939.56
2022-08-17T04:43:39.610Z,100938.47
2022-08-17T04:46:11.446Z,100929.63
2022-08-17T04:48:48.075Z,100939.97
2022-08-17T04:51:24.164Z,100946.88
2022-08-17T04:53:55.837Z,100949.13
2022-08-17T04:56:25.862Z,100946.09
2022-08-17T04:58:56.687Z,100955.59
2022-08-17T05:01:26.496Z,100953.59
2022-08-17T05:03:58.939Z,100956.22
2022-08-17T05:06:27.455Z,100962.31
2022-08-17T05:08:54.924Z,100959.59
2022-08-17T05:11:23.747Z,100960.41
2022-08-17T05:13:50.704Z,100964.81
2022-08-17T05:16:18.730Z,100968.38
2022-08-17T05:18:46.414Z,100963.94
2022-08-17T05:21:14.098Z,100968.34
2022-08-17T05:23:43.323Z,100960.47
2022-08-17T05:26:25.726Z,100969.19
2022-08-17T05:28:59.508Z,100962.09
2022-08-17T05:31:28.665Z,100969.84
2022-08-17T05:33:55.804Z,100976.78
2022-08-17T05:36:41.831Z,100979.22
2022-08-17T05:39:15.930Z,100990.53
2022-08-17T05:41:47.623Z,100988.53
2022-08-17T05:44:15.061Z,100992.84
2022-08-17T05:46:48.400Z,100991.84
2022-08-17T05:49:18.907Z,100989.84
2022-08-17T05:52:03.972Z,100988.78
2022-08-17T05:54:58.497Z,100990.31
2022-08-17T05:57:47.623Z,100990.97
2022-08-17T06:00:31.286Z,100991.50
2022-08-17T06:03:52.161Z,100990.44
2022-08-17T06:06:38.480Z,100995.66
2022-08-17T06:09:34.161Z,100998.94
2022-08-17T06:12:34.952Z,101004.78
2022-08-17T06:15:38.095Z,101006.09
2022-08-17T06:18:08.938Z,101001.19
2022-08-17T06:20:51.591Z,101009.78
2022-08-17T06:23:34.028Z,101007.75
2022-08-17T06:26:09.028Z,101006.53
2022-08-17T06:28:42.461Z,100998.41
2022-08-17T06:31:22.232Z,101007.94
2022-08-17T06:33:50.180Z,101012.16
2022-08-17T06:37:05.590Z,101013.78
2022-08-17T06:40:00.614Z,101015.31
2022-08-17T06:43:07.436Z,101007.69
2022-08-17T06:45:49.538Z,101004.34
2022-08-17T06:48:35.156Z,101011.69
2022-08-17T06:51:22.184Z,101012.78
2022-08-17T06:54:05.164Z,101008.81
2022-08-17T06:57:14.555Z,101005.25
2022-08-17T06:59:54.858Z,101010.78
2022-08-17T07:03:02.646Z,101015.38
2022-08-17T07:05:42.335Z,101008.50
2022-08-17T07:08:37.987Z,101015.84
2022-08-17T07:11:19.159Z,101017.84
2022-08-17T07:14:25.358Z,101014.53
2022-08-17T07:16:56.218Z,101018.16
2022-08-17T07:19:27.689Z,101021.97
2022-08-17T07:22:59.338Z,101020.53
2022-08-17T07:25:28.574Z,101023.56
2022-08-17T07:28:00.219Z,101023.97
2022-08-17T07:30:47.370Z,101026.13
2022-08-17T07:33:25.668Z,101030.94
2022-08-17T07:35:53.541Z,101026.03
2022-08-17T07:38:30.315Z,101032.66
2022-08-17T07:40:57.809Z,101033.78
2022-08-17T07:43:39.515Z,101030.47
2022-08-17T07:46:51.047Z,101030.88
2022-08-17T07:49:33.372Z,101023.00
2022-08-17T07:52:24.179Z,101019.94
2022-08-17T07:54:56.617Z,101027.31
2022-08-17T07:57:36.107Z,101031.38
2022-08-17T08:00:12.690Z,101024.50
2022-08-17T08:02:48.066Z,101026.03
2022-08-17T08:05:30.857Z,101025.06
2022-08-17T08:08:34.043Z,101023.94
2022-08-17T08:11:15.360Z,101028.53
2022-08-17T08:13:45.518Z,101027.84
2022-08-17T08:16:26.984Z,101026.25
2022-08-17T08:19:02.519Z,101026.44
2022-08-17T08:21:47.152Z,101030.22
2022-08-17T08:24:48.769Z,101034.91
2022-08-17T08:27:29.330Z,101030.84
2022-08-17T08:30:14.101Z,101032.19
2022-08-17T08:33:21.705Z,101028.25
2022-08-17T08:37:15.991Z,101035.69
2022-08-17T08:39:21.357Z,101034.56
2022-08-17T08:42:03.441Z,101035.97
2022-08-17T08:45:00.884Z,101028.47
2022-08-17T08:47:53.853Z,101039.34
2022-08-17T08:50:38.126Z,101036.91
2022-08-17T08:53:36.175Z,101029.28
2022-08-17T08:56:25.202Z,101020.84
2022-08-17T08:59:04.866Z,101026.34
2022-08-17T09:02:01.401Z,101033.56
2022-08-17T09:05:14.201Z,101030.03
2022-08-17T09:08:06.192Z,101030.25
2022-08-17T09:11:02.373Z,101028.84
2022-08-17T09:14:21.145Z,101026.41
2022-08-17T09:17:05.079Z,101030.06
2022-08-17T09:19:58.223Z,101027.91
2022-08-17T09:22:43.768Z,101030.69
2022-08-17T09:25:28.898Z,101025.16
2022-08-17T09:28:03.737Z,101029.03
2022-08-17T09:30:45.490Z,101029.09
2022-08-17T09:33:22.781Z,101035.53
2022-08-17T09:36:23.745Z,101027.88
2022-08-17T09:39:15.946Z,101028.19
2022-08-17T09:41:55.821Z,101029.44
2022-08-17T09:45:04.025Z,101032.53
2022-08-17T09:47:49.584Z,101026.94
2022-08-17T09:50:55.506Z,101029.28
2022-08-17T09:53:32.040Z,101034.06
2022-08-17T09:56:45.980Z,101020.94
2022-08-17T09:59:58.372Z,101030.50
2022-08-17T10:03:16.137Z,101032.44
2022-08-17T10:06:13.352Z,101029.50
2022-08-17T10:09:08.756Z,101026.97
2022-08-17T10:12:17.057Z,101023.25
2022-08-17T10:15:13.503Z,101025.84
2022-08-17T10:18:08.097Z,101026.63
2022-08-17T10:21:25.282Z,101022.97
2022-08-17T10:24:40.346Z,101022.63
2022-08-17T10:27:42.807Z,101010.38
2022-08-17T10:30:11.321Z,101025.56
2022-08-17T10:32:55.141Z,101025.16
2022-08-17T10:35:46.069Z,101028.28
2022-08-17T10:38:39.065Z,101031.44
2022-08-17T10:41:32.576Z,101022.75
2022-08-17T10:44:38.631Z,101020.44
2022-08-17T10:47:17.133Z,101014.78
2022-08-17T10:49:49.484Z,101019.66
2022-08-17T10:52:22.819Z,101019.91
2022-08-17T10:54:51.817Z,101022.59
2022-08-17T10:57:34.028Z,101017.94
2022-08-17T11:00:10.374Z,101024.19
2022-08-17T11:02:49.502Z,101023.09
2022-08-17T11:05:46.619Z,101022.47
2022-08-17T11:09:22.509Z,101007.63
2022-08-17T11:12:42.338Z,101021.47
2022-08-17T11:15:38.771Z,101012.38
2022-08-17T11:18:42.272Z,101008.88
2022-08-17T11:21:38.503Z,101006.91
2022-08-17T11:24:24.134Z,101012.97
2022-08-17T11:27:26.463Z,101014.00
2022-08-17T11:30:02.522Z,101006.25
2022-08-17T11:32:54.413Z,101005.69
2022-08-17T11:35:21.710Z,101002.50
2022-08-17T11:38:26.311Z,101007.78
2022-08-17T11:41:30.416Z,101003.22
2022-08-17T11:44:37.585Z,101008.47
2022-08-17T11:47:36.679Z,101011.25
2022-08-17T11:50:55.480Z,100998.81
2022-08-17T11:53:37.545Z,100992.84
2022-08-17T11:56:49.089Z,100992.41
2022-08-17T11:59:35.830Z,100993.59
2022-08-17T12:02:19.858Z,100989.06
2022-08-17T12:05:27.409Z,100995.94
2022-08-17T12:08:17.678Z,100986.97
2022-08-17T12:10:58.507Z,100989.53
2022-08-17T12:13:30.548Z,100988.06
2022-08-17T12:16:07.151Z,100987.50
2022-08-17T12:18:39.446Z,100984.78
2022-08-17T12:21:51.219Z,100986.50
2022-08-17T12:24:35.375Z,100986.03
2022-08-17T12:27:06.298Z,100990.47
2022-08-17T12:29:39.097Z,100985.53
2022-08-17T12:32:07.315Z,100987.16
2022-08-17T12:34:42.708Z,100993.53
2022-08-17T12:37:27.721Z,100987.56
2022-08-17T12:40:17.954Z,100984.97
2022-08-17T12:42:58.283Z,100993.22
2022-08-17T12:45:32.449Z,100981.59
2022-08-17T12:48:07.862Z,100983.34
2022-08-17T12:50:42.441Z,100975.00
2022-08-17T12:53:16.108Z,100977.44
2022-08-17T12:55:44.369Z,100979.78
2022-08-17T12:58:21.760Z,100974.53
2022-08-17T13:00:59.383Z,100970.56
2022-08-17T13:03:36.373Z,100984.41
2022-08-17T13:06:09.462Z,100979.78
2022-08-17T13:08:47.937Z,100986.06
2022-08-17T13:11:14.701Z,100983.56
2022-08-17T13:13:46.300Z,100980.50
2022-08-17T13:16:14.192Z,100981.16
2022-08-17T13:18:48.660Z,100980.72
2022-08-17T13:21:28.128Z,100988.44
2022-08-17T13:24:01.167Z,100985.16
2022-08-17T13:26:46.687Z,100979.41
2022-08-17T13:29:37.249Z,100979.22
2022-08-17T13:32:07.927Z,100976.88
2022-08-17T13:35:06.539Z,100982.09
2022-08-17T13:37:36.059Z,100979.28
2022-08-17T13:40:22.815Z,100966.13
2022-08-17T13:42:54.143Z,100968.19
2022-08-17T13:45:35.563Z,100962.88
2022-08-17T13:48:12.349Z,100964.78
2022-08-17T13:50:59.496Z,100951.50
2022-08-17T13:53:36.445Z,100950.97
2022-08-17T13:56:37.815Z,100951.94
2022-08-17T13:59:11.756Z,100946.72
2022-08-17T14:01:53.339Z,100949.41
2022-08-17T14:04:32.105Z,100949.97
2022-08-17T14:07:04.857Z,100948.84
2022-08-17T14:10:05.132Z,100955.09
2022-08-17T14:12:35.422Z,100955.81
2022-08-17T14:15:03.094Z,100955.09
2022-08-17T14:17:34.970Z,100957.81
2022-08-17T14:20:12.094Z,100966.44
2022-08-17T14:22:45.497Z,100958.91
2022-08-17T14:25:25.335Z,100952.88
2022-08-17T14:27:53.970Z,100951.69
2022-08-17T14:30:29.102Z,100956.03
2022-08-17T14:32:58.030Z,100953.59
2022-08-17T14:35:27.481Z,100948.59
2022-08-17T14:37:54.626Z,100953.97
2022-08-17T14:40:24.390Z,100949.31
2022-08-17T14:42:53.147Z,100950.00
2022-08-17T14:45:31.511Z,100957.13
2022-08-17T14:48:04.023Z,100954.44
2022-08-17T14:50:31.841Z,100946.75
2022-08-17T14:52:59.247Z,100950.28
2022-08-17T14:55:29.148Z,100943.44
2022-08-17T14:57:56.046Z,100949.25
2022-08-17T15:00:23.183Z,100951.72
2022-08-17T15:02:58.278Z,100952.63
2022-08-17T15:05:31.475Z,100945.91
2022-08-17T15:08:00.890Z,100949.47
2022-08-17T15:10:29.168Z,100952.41
2022-08-17T15:12:56.822Z,100953.66
2022-08-17T15:15:24.090Z,100943.63
2022-08-17T15:17:51.590Z,100949.13
2022-08-17T15:20:23.757Z,100943.63
2022-08-17T15:22:51.090Z,100945.34
2022-08-17T15:25:19.405Z,100945.22
2022-08-17T15:27:47.397Z,100952.31
2022-08-17T15:30:15.482Z,100945.81
2022-08-17T15:32:46.852Z,100950.97
2022-08-17T15:35:28.222Z,100950.72
2022-08-17T15:38:09.747Z,100948.88
2022-08-17T15:40:46.110Z,100952.06
2022-08-17T15:43:27.041Z,100954.16
2022-08-17T15:46:11.920Z,100944.16
2022-08-17T15:48:41.831Z,100943.78
2022-08-17T15:51:13.960Z,100948.09
2022-08-17T15:53:44.658Z,100943.22
2022-08-17T15:56:15.046Z,100948.81
2022-08-17T15:58:43.865Z,100954.47
2022-08-17T16:01:12.451Z,100952.13
2022-08-17T16:03:58.374Z,100951.75
2022-08-17T16:06:30.798Z,100944.66
2022-08-17T16:08:59.341Z,100948.59
2022-08-17T16:11:26.474Z,100945.44
2022-08-17T16:13:54.735Z,100947.97
2022-08-17T16:16:23.683Z,100946.13
2022-08-17T16:18:53.599Z,100948.81
2022-08-17T16:21:25.726Z,100946.28
2022-08-17T16:24:02.317Z,100941.50
2022-08-17T16:26:31.813Z,100941.72
2022-08-17T16:29:01.818Z,100944.03
2022-08-17T16:31:29.346Z,100951.38
2022-08-17T16:34:16.257Z,100951.84
2022-08-17T16:36:54.905Z,100946.44
2022-08-17T16:39:24.254Z,100950.94
2022-08-17T16:41:51.173Z,100947.25
2022-08-17T16:44:21.340Z,100957.41
2022-08-17T16:46:50.187Z,100947.84
2022-08-17T16:49:35.612Z,100954.53
2022-08-17T16:52:07.252Z,100945.09
2022-08-17T16:54:35.251Z,100949.09
2022-08-17T16:57:04.910Z,100946.41
2022-08-17T16:59:39.653Z,100942.13
2022-08-17T17:02:11.302Z,100945.28
2022-08-17T17:04:46.202Z,100941.81
2022-08-17T17:07:42.917Z,100941.97
2022-08-17T17:10:15.441Z,100949.50
2022-08-17T17:13:02.119Z,100950.69
2022-08-17T17:15:47.503Z,100947.81
2022-08-17T17:18:15.948Z,100952.47
2022-08-17T17:20:55.521Z,100954.97
2022-08-17T17:23:38.149Z,100960.75
2022-08-17T17:26:30.323Z,100954.13
2022-08-17T17:29:47.635Z,100949.81
2022-08-17T17:32:32.143Z,100960.81
2022-08-17T17:35:16.908Z,100960.50
2022-08-17T17:37:45.404Z,100956.63
2022-08-17T17:40:25.065Z,100963.38
2022-08-17T17:42:55.242Z,100966.41
2022-08-17T17:45:31.836Z,100964.03
2022-08-17T17:47:58.780Z,100970.34
2022-08-17T17:50:37.388Z,100966.16
2022-08-17T17:53:35.180Z,100967.41
2022-08-17T17:56:44.090Z,100956.91
2022-08-17T17:59:29.710Z,100971.03
2022-08-17T18:02:52.949Z,100969.06
2022-08-17T18:05:37.109Z,100973.88
2022-08-17T18:08:34.730Z,100975.28
2022-08-17T18:11:59.059Z,100976.69
2022-08-17T18:14:37.566Z,100977.19
2022-08-17T18:17:06.009Z,100986.28
2022-08-17T18:19:33.162Z,100993.47
2022-08-17T18:22:06.866Z,100985.75
2022-08-17T18:24:40.511Z,100982.22
2022-08-17T18:27:37.523Z,100982.50
2022-08-17T18:30:27.526Z,100972.09
2022-08-17T18:32:54.434Z,100977.34
2022-08-17T18:35:28.811Z,100981.84
2022-08-17T18:38:20.426Z,100975.06
2022-08-17T18:41:20.655Z,100973.09
2022-08-17T18:44:06.035Z,100973.75
2022-08-17T18:46:36.746Z,100979.59
2022-08-17T18:49:24.310Z,100980.75
2022-08-17T18:52:23.942Z,100979.69
2022-08-17T18:55:13.616Z,100976.00
2022-08-17T18:57:47.418Z,100985.34
2022-08-17T19:00:32.584Z,100978.38
2022-08-17T19:03:18.365Z,100981.25
2022-08-17T19:05:51.960Z,100983.81
2022-08-17T19:08:31.119Z,100988.31
2022-08-17T19:11:08.153Z,100984.00
2022-08-17T19:13:53.794Z,100989.34
2022-08-17T19:16:31.120Z,100994.97
2022-08-17T19:19:10.604Z,101006.13
2022-08-17T19:21:55.926Z,100999.13
2022-08-17T19:24:27.083Z,101002.09
2022-08-17T19:27:06.283Z,101002.09
2022-08-17T19:30:08.431Z,101007.56
2022-08-17T19:32:36.651Z,101007.56
2022-08-17T19:35:06.734Z,100999.69
2022-08-17T19:38:06.276Z,100996.28
2022-08-17T19:41:01.906Z,100991.88
2022-08-17T19:44:12.603Z,100996.44
2022-08-17T19:46:56.280Z,100987.63
2022-08-17T19:50:08.221Z,100987.56
2022-08-17T19:53:07.557Z,100989.56
2022-08-17T19:56:16.703Z,100982.69
2022-08-17T19:59:03.795Z,100978.19
2022-08-17T20:01:38.762Z,100980.78
2022-08-17T20:04:31.869Z,100982.50
2022-08-17T20:07:24.895Z,100983.34
2022-08-17T20:09:58.778Z,100984.22
2022-08-17T20:12:35.820Z,100987.84
2022-08-17T20:15:30.037Z,100976.47
2022-08-17T20:18:00.339Z,100974.75
2022-08-17T20:21:00.506Z,100971.59
2022-08-17T20:23:41.035Z,100973.50
2022-08-17T20:26:39.040Z,100977.66
2022-08-17T20:29:15.052Z,100985.00
2022-08-17T20:31:56.622Z,100982.63
2022-08-17T20:34:33.434Z,100988.09
2022-08-17T20:37:29.264Z,100995.44
2022-08-17T20:39:56.059Z,100998.88
2022-08-17T20:42:22.881Z,100990.88
2022-08-17T20:45:02.833Z,100990.00
2022-08-17T20:48:00.785Z,100984.81
2022-08-17T20:50:37.876Z,100985.78
2022-08-17T20:53:11.251Z,100983.31
2022-08-17T20:55:52.425Z,100989.56
2022-08-17T20:58:30.062Z,100977.19
2022-08-17T21:00:58.902Z,100966.69
2022-08-17T21:03:28.672Z,100968.84
2022-08-17T21:06:19.012Z,100965.06
2022-08-17T21:09:29.792Z,100972.66
2022-08-17T21:12:04.674Z,100968.53
2022-08-17T21:15:04.229Z,100969.84
2022-08-17T21:17:39.692Z,100976.22
2022-08-17T21:20:32.587Z,100980.97
2022-08-17T21:23:26.209Z,100986.75
2022-08-17T21:26:17.466Z,100986.84
2022-08-17T21:29:00.819Z,100991.59
2022-08-17T21:31:40.644Z,100997.41
2022-08-17T21:34:16.666Z,100998.63
2022-08-17T21:36:45.414Z,100991.56
2022-08-17T21:39:21.450Z,100983.56
2022-08-17T21:41:56.291Z,100995.19
2022-08-17T21:44:37.718Z,100994.31
2022-08-17T21:47:27.505Z,100998.09
2022-08-17T21:49:59.550Z,100990.69
2022-08-17T21:52:27.659Z,100992.19
2022-08-17T21:55:02.247Z,100993.66
2022-08-17T21:57:30.204Z,100994.78
2022-08-17T22:00:01.384Z,100986.41
2022-08-17T22:02:37.757Z,100987.59
2022-08-17T22:05:12.186Z,100993.00
2022-08-17T22:07:50.725Z,100991.53
2022-08-17T22:10:41.906Z,100994.66
2022-08-17T22:13:19.929Z,100988.06
2022-08-17T22:16:15.343Z,100985.41
2022-08-17T22:18:44.686Z,100984.44
2022-08-17T22:21:11.588Z,100977.88
2022-08-17T22:24:02.503Z,100983.94
2022-08-17T22:27:11.434Z,100986.66
2022-08-17T22:29:59.437Z,100981.25
2022-08-17T22:32:45.905Z,100979.44
2022-08-17T22:35:36.985Z,100979.44
2022-08-17T22:38:19.119Z,100983.81
2022-08-17T22:40:56.811Z,100970.59
2022-08-17T22:43:28.524Z,100972.78
2022-08-17T22:45:59.310Z,100973.16
2022-08-17T22:48:29.580Z,100963.84
2022-08-17T22:51:14.724Z,100966.78
2022-08-17T22:54:21.713Z,100966.09
2022-08-17T22:57:21.618Z,100961.78
2022-08-17T22:59:55.052Z,100964.50
2022-08-17T23:02:32.105Z,100963.59
2022-08-17T23:05:13.857Z,100969.84
2022-08-17T23:07:42.523Z,100974.31
2022-08-17T23:10:12.035Z,100980.59
2022-08-17T23:12:39.850Z,100960.19
2022-08-17T23:15:15.437Z,100963.34
2022-08-17T23:17:42.876Z,100960.56
2022-08-17T23:20:17.612Z,100960.41
2022-08-17T23:22:51.871Z,100970.72
2022-08-17T23:25:33.448Z,100959.03
2022-08-17T23:28:03.797Z,100960.94
2022-08-17T23:30:34.065Z,100961.69
2022-08-17T23:33:07.793Z,100960.59
2022-08-17T23:35:39.317Z,100956.84
2022-08-17T23:38:09.298Z,100959.31
2022-08-17T23:40:37.749Z,100952.88
2022-08-17T23:43:24.471Z,100954.47
2022-08-17T23:45:58.499Z,100952.53
2022-08-17T23:48:35.399Z,100948.81
2022-08-17T23:51:14.570Z,100952.09
2022-08-17T23:53:46.389Z,100939.50
2022-08-17T23:56:14.147Z,100940.22
2022-08-17T23:58:43.267Z,100939.28
